Latest Weather Observations for Swanbourne

IDW60801

Issued at 5:32 pm WST Tuesday 26 May 2015 (issued every 30 minutes, with the page automatically refreshed every 10 minutes)

About weather observations | Map of weather stations | Latest weather observations for WA | Other Formats
Station Details ID: 009215 Name: SWANBOURNE Lat: -31.96 Lon: 115.76 Height: 40.96 m
Data from the previous 72 hours. | See also: Recent months at Swanbourne
Date/Time
WST
Temp
°C
App
Temp
°C
Dew
Point
Rel
Hum
%
Delta-T
°C
Wind Press
QNH
hPa
Press
MSL
hPa
Rain
since 9 am
mm
Dir
 
Spd
km/h
Gust
km/h
Spd
kts
Gust
kts
26/05:30pm 15.7 14.7 11.1 74 2.5 S 7 9 4 5 - - 0.2
26/05:00pm 16.6 15.3 11.3 71 2.9 SSW 9 13 5 7 - - 0.2
26/04:30pm 17.6 16.3 11.4 67 3.4 SSW 9 13 5 7 - - 0.2
26/04:00pm 17.5 16.6 11.3 67 3.4 SSW 7 13 4 7 - - 0.2
26/03:30pm 18.7 17.5 11.5 63 4.0 SW 9 13 5 7 - - 0.2
26/03:00pm 18.5 17.7 11.1 62 4.0 S 6 9 3 5 - - 0.2
26/02:30pm 19.0 18.4 11.6 62 4.1 SSW 6 11 3 6 - - 0.2
26/02:00pm 18.7 18.0 12.0 65 3.7 SSE 7 13 4 7 - - 0.2
26/01:30pm 18.4 17.1 12.4 68 3.3 SE 11 17 6 9 - - 0.2
26/01:00pm 17.6 17.8 14.1 80 2.0 SE 6 9 3 5 - - 0.2
26/12:30pm 17.1 16.3 14.0 82 1.8 SW 11 17 6 9 - - 0.0
26/12:00pm 19.7 19.2 12.0 61 4.3 S 6 11 3 6 - - 0.0
26/11:30am 20.1 19.7 13.1 64 4.0 SE 7 13 4 7 - - 0.0
26/11:00am 19.5 17.3 12.0 62 4.2 SE 15 20 8 11 - - 0.0
26/10:30am 19.0 18.5 12.0 64 3.9 ESE 6 9 3 5 - - 0.0
26/10:00am 17.7 17.6 12.2 70 3.0 SE 4 7 2 4 - - 0.0
26/09:30am 17.7 16.9 11.7 68 3.3 NNE 7 11 4 6 - - 0.0
26/09:00am 15.8 14.9 11.2 74 2.5 NE 7 11 4 6 - - 0.0
26/08:30am 13.6 12.1 10.4 81 1.7 ENE 9 11 5 6 - - 0.0
26/08:00am 11.7 10.0 9.9 89 0.9 ENE 9 13 5 7 - - 0.0
26/07:30am 11.5 9.4 9.8 89 0.9 ENE 11 11 6 6 - - 0.0
26/07:00am 11.8 10.5 10.0 89 0.9 NE 7 7 4 4 - - 0.0
26/06:30am 11.7 10.3 9.6 87 1.1 NE 7 9 4 5 - - 0.0
26/06:00am 11.8 10.4 9.7 87 1.1 ENE 7 9 4 5 - - 0.0
26/05:30am 11.4 9.6 9.3 87 1.1 ENE 9 9 5 5 - - 0.0
26/05:00am 11.7 9.9 9.4 86 1.2 ENE 9 9 5 5 - - 0.0
26/04:30am 11.7 9.5 9.4 86 1.2 ENE 11 11 6 6 - - 0.0
26/04:00am 11.9 10.1 9.5 85 1.2 ENE 9 11 5 6 - - 0.0
26/03:30am 12.3 10.5 9.5 83 1.4 ENE 9 11 5 6 - - 0.0
26/03:00am 12.5 11.1 9.7 83 1.4 ENE 7 7 4 4 - - 0.0
26/02:30am 12.5 10.7 9.5 82 1.5 ENE 9 9 5 5 - - 0.0
26/02:00am 12.8 11.1 9.8 82 1.5 ENE 9 11 5 6 - - 0.0
26/01:30am 13.1 11.9 10.3 83 1.5 ENE 7 9 4 5 - - 0.0
26/01:00am 13.9 12.4 10.7 81 1.7 E 9 13 5 7 - - 0.0
26/12:30am 13.8 12.3 10.6 81 1.7 E 9 13 5 7 - - 0.0
26/12:00am 14.4 13.0 10.8 79 1.9 E 9 11 5 6 - - 0.0
 
Date/Time
WST
Temp
°C
App
Temp
°C
Dew
Point
Rel
Hum
%
Delta-T
°C
Wind Press
QNH
hPa
Press
MSL
hPa
Rain
since 9 am
mm
Dir
 
Spd
km/h
Gust
km/h
Spd
kts
Gust
kts
25/11:30pm 14.9 13.6 11.3 79 1.9 ESE 9 11 5 6 - - 0.0
25/11:00pm 14.3 12.8 10.5 78 2.0 ESE 9 9 5 5 - - 0.0
25/10:30pm 14.2 13.0 10.4 78 2.0 E 7 9 4 5 - - 0.0
25/10:00pm 14.2 12.9 10.0 76 2.2 ESE 7 9 4 5 - - 0.0
25/09:30pm 15.0 14.0 10.2 73 2.5 ESE 6 7 3 4 - - 0.0
25/09:00pm 15.8 14.5 10.1 69 3.0 ESE 7 11 4 6 - - 0.0
25/08:30pm 16.9 15.6 11.2 69 3.1 SW 9 15 5 8 - - 0.0
25/08:00pm 16.6 15.6 10.9 69 3.1 SW 7 9 4 5 - - 0.0
25/07:30pm 17.1 15.6 10.7 66 3.4 SW 9 15 5 8 - - 0.0
25/07:00pm 16.8 15.3 10.4 66 3.4 SW 9 11 5 6 - - 0.0
25/06:30pm 17.1 15.1 10.0 63 3.8 SW 11 17 6 9 - - 0.0
25/06:00pm 17.3 15.6 9.7 61 4.0 SW 9 15 5 8 - - 0.0
25/05:30pm 17.4 15.6 9.3 59 4.2 SW 9 15 5 8 - - 0.0
25/05:00pm 18.3 16.0 9.1 55 4.8 SW 11 15 6 8 - - 0.0
25/04:30pm 19.3 16.5 8.6 50 5.6 SW 13 19 7 10 - - 0.0
25/04:00pm 19.9 16.7 8.3 47 6.0 SW 15 22 8 12 - - 0.0
25/03:30pm 21.0 19.1 10.5 51 5.7 SW 11 20 6 11 - - 0.0
25/03:00pm 20.6 18.0 9.5 49 5.9 SW 13 19 7 10 - - 0.0
25/02:30pm 21.2 19.0 9.4 47 6.3 SW 11 17 6 9 - - 0.0
25/02:00pm 21.2 19.8 11.0 52 5.6 SW 9 13 5 7 - - 0.0
25/01:30pm 20.6 19.1 10.4 52 5.5 SW 9 13 5 7 - - 0.0
25/01:00pm 19.9 17.8 9.8 52 5.4 WSW 11 15 6 8 - - 0.0
25/12:30pm 20.5 18.9 10.3 52 5.5 WSW 9 11 5 6 - - 0.0
25/12:00pm 20.4 19.0 9.6 50 5.8 SW 7 9 4 5 - - 0.0
25/11:30am 19.9 18.8 10.0 53 5.3 W 6 9 3 5 - - 0.0
25/11:00am 20.2 19.6 10.3 53 5.4 SW 4 9 2 5 - - 0.0
25/10:30am 18.9 18.2 9.9 56 4.8 WSW 4 11 2 6 - - 0.0
25/10:00am 18.3 17.3 8.8 54 4.9 ESE 4 7 2 4 - - 0.0
25/09:30am 17.3 15.9 9.5 60 4.1 E 7 11 4 6 - - 0.0
25/09:00am 15.7 13.4 8.9 64 3.5 E 11 15 6 8 - - 0.0
25/08:30am 14.2 12.2 8.8 70 2.7 E 9 13 5 7 - - 0.0
25/08:00am 12.4 10.2 9.2 81 1.6 ENE 11 15 6 8 - - 0.0
25/07:30am 11.7 9.4 8.9 83 1.4 E 11 13 6 7 - - 0.0
25/07:00am 11.4 9.3 8.4 82 1.5 E 9 11 5 6 - - 0.0
25/06:30am 11.7 9.7 8.6 81 1.5 E 9 11 5 6 - - 0.0
25/06:00am 12.1 9.7 8.8 80 1.6 E 11 13 6 7 - - 0.0
25/05:30am 12.4 9.8 9.2 81 1.6 E 13 17 7 9 - - 0.0
25/05:00am 12.7 10.3 9.9 83 1.4 E 13 15 7 8 - - 0.0
25/04:30am 13.0 10.4 9.4 79 1.8 E 13 15 7 8 - - 0.0
25/04:00am 13.6 11.5 9.6 77 2.1 E 11 13 6 7 - - 0.0
25/03:30am 13.7 11.6 9.7 77 2.1 ESE 11 13 6 7 - - 0.0
25/03:00am 13.7 12.0 9.9 78 2.0 E 9 11 5 6 - - 0.0
25/02:30am 13.7 12.0 9.9 78 2.0 ESE 9 11 5 6 - - 0.0
25/02:00am 13.6 11.5 9.8 78 2.0 ESE 11 15 6 8 - - 0.0
25/01:30am 13.9 12.2 9.7 76 2.2 ESE 9 13 5 7 - - 0.0
25/01:00am 14.0 12.3 10.0 77 2.1 ESE 9 13 5 7 - - 0.0
25/12:30am 14.0 12.7 10.0 77 2.1 SE 7 11 4 6 - - 0.0
25/12:00am 14.1 12.1 10.1 77 2.1 ESE 11 15 6 8 - - 0.0
 
Date/Time
WST
Temp
°C
App
Temp
°C
Dew
Point
Rel
Hum
%
Delta-T
°C
Wind Press
QNH
hPa
Press
MSL
hPa
Rain
since 9 am
mm
Dir
 
Spd
km/h
Gust
km/h
Spd
kts
Gust
kts
24/11:30pm 14.0 12.3 10.0 77 2.1 ESE 9 13 5 7 - - 0.0
24/11:00pm 14.4 13.1 10.0 75 2.3 SE 7 11 4 6 - - 0.0
24/10:30pm 14.9 13.7 10.3 74 2.4 SE 7 11 4 6 - - 0.0
24/10:00pm 14.3 12.5 9.5 73 2.5 SE 9 13 5 7 - - 0.0
24/09:30pm 14.6 13.2 9.4 71 2.7 SE 7 9 4 5 - - 0.0
24/09:00pm 14.8 13.6 9.4 70 2.8 SE 6 9 3 5 - - 0.0
24/08:30pm 15.3 13.9 9.7 69 2.9 SSE 7 11 4 6 - - 0.0
24/08:00pm 15.4 14.0 9.7 69 3.0 SE 7 11 4 6 - - 0.0
24/07:30pm 15.5 13.7 9.6 68 3.1 SSE 9 13 5 7 - - 0.0
24/07:00pm 15.3 13.6 9.7 69 2.9 SSE 9 11 5 6 - - 0.0
24/06:30pm 15.5 13.7 9.6 68 3.1 SSE 9 11 5 6 - - 0.0
24/06:00pm 16.1 14.3 9.5 65 3.4 S 9 15 5 8 - - 0.0
24/05:30pm 16.3 14.9 9.7 65 3.5 S 7 11 4 6 - - 0.0
24/05:00pm 17.4 16.3 10.1 62 3.9 S 6 11 3 6 - - 0.0
24/04:30pm 18.7 16.9 10.8 60 4.3 SSW 11 19 6 10 - - 0.0
24/04:00pm 19.1 16.8 10.6 58 4.6 SSW 13 19 7 10 - - 0.0
24/03:30pm 19.8 18.0 10.8 56 4.9 SSW 11 19 6 10 - - 0.0
24/03:00pm 20.3 18.2 11.0 55 5.1 SW 13 20 7 11 - - 0.0
24/02:30pm 19.9 17.6 10.3 54 5.2 SSW 13 19 7 10 - - 0.0
24/02:00pm 20.5 18.7 10.9 54 5.3 SSW 11 19 6 10 - - 0.0
24/01:30pm 20.3 18.7 11.5 57 4.9 SW 11 17 6 9 - - 0.0
24/01:00pm 20.4 19.3 11.9 58 4.7 SW 9 15 5 8 - - 0.0
24/12:30pm 20.0 19.4 10.4 54 5.2 ESE 4 7 2 4 - - 0.0
24/12:00pm 20.2 19.5 11.9 59 4.6 ESE 7 13 4 7 - - 0.0
24/11:30am 19.5 18.8 11.5 60 4.4 ESE 6 11 3 6 - - 0.0
24/11:00am 18.9 18.2 11.5 62 4.1 ESE 6 11 3 6 - - 0.0
24/10:30am 17.7 16.5 11.7 68 3.3 ESE 9 13 5 7 - - 0.0
24/10:00am 16.3 15.9 12.5 78 2.1 ESE 6 9 3 5 - - 0.0
24/09:30am 14.8 14.3 12.8 88 1.1 ESE 7 15 4 8 - - 0.0
24/09:00am 13.3 12.9 13.0 98 0.2 SE 7 13 4 7 - - 0.4
24/08:30am 11.9 10.7 11.6 98 0.2 ESE 9 11 5 6 - - 0.4
24/08:00am 11.1 9.3 10.8 98 0.2 SE 11 15 6 8 - - 0.4
24/07:30am 10.5 8.9 10.2 98 0.2 SE 9 13 5 7 - - 0.4
24/07:00am 10.7 8.8 10.4 98 0.2 ESE 11 15 6 8 - - 0.4
24/06:30am 10.9 8.6 10.6 98 0.2 ESE 13 17 7 9 - - 0.4
24/06:00am 10.9 8.6 10.6 98 0.2 ESE 13 15 7 8 - - 0.4
24/05:30am 11.3 9.5 11.0 98 0.2 ESE 11 15 6 8 - - 0.4
24/05:00am 11.3 9.2 11.0 98 0.2 ESE 13 15 7 8 - - 0.4
24/04:30am 11.5 9.4 11.2 98 0.2 ESE 13 15 7 8 - - 0.4
24/04:00am 11.6 9.5 11.3 98 0.2 ESE 13 15 7 8 - - 0.4
24/03:30am 11.7 9.6 11.2 97 0.3 ESE 13 15 7 8 - - 0.4
24/03:00am 12.0 10.4 11.4 96 0.3 E 11 15 6 8 - - 0.2
24/02:30am 12.4 10.3 11.3 93 0.6 ESE 13 15 7 8 - - 0.2
24/02:00am 12.7 10.3 11.3 91 0.7 ESE 15 19 8 10 - - 0.2
24/01:30am 13.1 11.1 11.5 90 0.9 ESE 13 17 7 9 - - 0.2
24/01:00am 13.5 11.6 11.9 90 0.9 SE 13 22 7 12 - - 0.2
24/12:30am 13.2 11.8 12.1 93 0.6 SSE 11 19 6 10 - - 0.2
24/12:00am 13.7 12.6 13.2 97 0.3 SSE 11 19 6 10 - - 0.2
 
Date/Time
WST
Temp
°C
App
Temp
°C
Dew
Point
Rel
Hum
%
Delta-T
°C
Wind Press
QNH
hPa
Press
MSL
hPa
Rain
since 9 am
mm
Dir
 
Spd
km/h
Gust
km/h
Spd
kts
Gust
kts
23/11:30pm 13.7 12.7 13.4 98 0.2 SSE 11 19 6 10 - - 0.2
23/11:00pm 13.7 13.1 13.4 98 0.2 SE 9 13 5 7 - - 0.2
23/10:30pm 13.7 13.1 13.4 98 0.2 SE 9 13 5 7 - - 0.2
23/10:00pm 13.9 13.3 13.6 98 0.2 SE 9 11 5 6 - - 0.2
23/09:30pm 14.0 13.5 13.7 98 0.2 ESE 9 11 5 6 - - 0.2
23/09:00pm 14.3 13.9 14.0 98 0.2 ESE 9 11 5 6 - - 0.2
23/08:30pm 14.4 14.3 13.9 97 0.3 ESE 7 9 4 5 - - 0.2
23/08:00pm 14.8 14.4 14.0 95 0.5 ESE 9 13 5 7 - - 0.2
23/07:30pm 15.0 14.9 14.0 94 0.6 SE 7 11 4 6 - - 0.2
23/07:00pm 15.3 14.6 14.3 94 0.6 SSE 11 19 6 10 - - 0.2
23/06:30pm 15.8 14.4 14.5 92 0.7 S 15 22 8 12 - - 0.2
23/06:00pm 16.6 13.8 14.4 87 1.3 S 22 33 12 18 - - 0.0

Other Formats:

Comma delimited format used in spreadsheet applications
http://www.bom.gov.au/fwo/IDW60801/IDW60801.94614.axf

JavaScript Object Notation format (JSON) in row-major order
http://www.bom.gov.au/fwo/IDW60801/IDW60801.94614.json